createdAt,value
2022-09-07T00:01:45.994Z,99.90
2022-09-07T00:06:38.641Z,99.90
2022-09-07T00:11:31.095Z,99.90
2022-09-07T00:16:29.642Z,99.90
2022-09-07T00:21:22.117Z,99.90
2022-09-07T00:26:18.858Z,99.90
2022-09-07T00:31:19.168Z,99.90
2022-09-07T00:36:12.296Z,99.90
2022-09-07T00:41:06.618Z,99.90
2022-09-07T00:46:01.365Z,99.90
2022-09-07T00:51:03.411Z,99.90
2022-09-07T00:55:58.503Z,99.90
2022-09-07T01:00:52.170Z,99.90
2022-09-07T01:05:53.879Z,99.90
2022-09-07T01:10:47.875Z,99.90
2022-09-07T01:15:44.300Z,99.90
2022-09-07T01:20:44.805Z,99.90
2022-09-07T01:26:06.899Z,99.90
2022-09-07T01:31:23.153Z,99.90
2022-09-07T01:36:33.290Z,99.90
2022-09-07T01:41:47.075Z,99.90
2022-09-07T01:47:07.205Z,99.90
2022-09-07T01:52:06.547Z,99.90
2022-09-07T01:57:04.626Z,99.90
2022-09-07T02:02:06.143Z,99.90
2022-09-07T02:07:34.075Z,99.90
2022-09-07T02:12:37.142Z,99.90
2022-09-07T02:17:34.189Z,99.90
2022-09-07T02:22:30.270Z,99.90
2022-09-07T02:27:49.016Z,99.90
2022-09-07T02:32:41.661Z,99.90
2022-09-07T02:37:36.026Z,99.90
2022-09-07T02:42:32.304Z,99.90
2022-09-07T02:47:27.696Z,99.90
2022-09-07T02:52:51.443Z,99.90
2022-09-07T02:57:56.907Z,99.90
2022-09-07T03:03:23.317Z,99.90
2022-09-07T03:08:44.518Z,99.90
2022-09-07T03:13:36.853Z,99.90
2022-09-07T03:18:29.284Z,99.90
2022-09-07T03:23:21.959Z,99.90
2022-09-07T03:28:14.444Z,99.90
2022-09-07T03:33:07.329Z,99.90
2022-09-07T03:37:59.653Z,99.90
2022-09-07T03:42:51.965Z,99.90
2022-09-07T03:47:44.764Z,99.90
2022-09-07T03:52:37.858Z,99.90
2022-09-07T03:57:30.467Z,99.90
2022-09-07T04:02:22.915Z,99.90
2022-09-07T04:07:16.091Z,99.90
2022-09-07T04:12:08.652Z,99.90
2022-09-07T04:17:01.220Z,99.90
2022-09-07T04:21:53.776Z,99.90
2022-09-07T04:26:46.173Z,99.90
2022-09-07T04:31:38.869Z,99.90
2022-09-07T04:36:31.589Z,99.90
2022-09-07T04:41:24.243Z,99.90
2022-09-07T04:46:21.928Z,99.90
2022-09-07T04:51:14.960Z,99.90
2022-09-07T04:56:07.476Z,99.90
2022-09-07T05:01:55.847Z,99.90
2022-09-07T05:08:03.538Z,99.90
2022-09-07T05:14:10.760Z,99.90
2022-09-07T05:20:20.230Z,99.90
2022-09-07T05:26:27.188Z,99.90
2022-09-07T05:32:36.149Z,99.90
2022-09-07T05:38:43.040Z,99.90
2022-09-07T05:44:50.313Z,99.90
2022-09-07T05:50:57.667Z,99.90
2022-09-07T05:57:05.016Z,99.90
2022-09-07T06:03:12.213Z,99.90
2022-09-07T06:09:20.908Z,99.90
2022-09-07T06:15:29.268Z,99.90
2022-09-07T06:21:36.702Z,99.90
2022-09-07T06:27:43.838Z,99.90
2022-09-07T06:33:50.732Z,99.90
2022-09-07T06:39:58.215Z,99.90
2022-09-07T06:58:59.100Z,91.70
2022-09-07T07:04:10.184Z,90.00
2022-09-07T07:09:04.102Z,82.90
2022-09-07T07:13:56.719Z,73.10
2022-09-07T07:18:52.445Z,76.70
2022-09-07T07:23:45.462Z,79.50
2022-09-07T07:33:50.487Z,84.10
2022-09-07T07:39:01.313Z,83.50
2022-09-07T07:43:57.232Z,80.40
2022-09-07T07:48:49.718Z,78.80
2022-09-07T07:53:42.752Z,83.40
2022-09-07T07:58:37.159Z,84.80
2022-09-07T08:03:30.411Z,82.00
2022-09-07T08:08:25.540Z,78.90
2022-09-07T08:13:18.587Z,72.90
2022-09-07T08:18:16.458Z,72.50
2022-09-07T08:23:09.291Z,73.90
2022-09-07T08:28:02.443Z,75.80
2022-09-07T08:32:54.809Z,74.40
2022-09-07T08:37:47.248Z,77.90
2022-09-07T08:42:48.731Z,88.30
2022-09-07T08:47:50.724Z,92.50
2022-09-07T08:53:04.501Z,95.70
2022-09-07T08:58:52.920Z,98.30
2022-09-07T09:05:17.036Z,99.90
2022-09-07T09:11:26.211Z,99.90
2022-09-07T09:17:33.512Z,99.90
2022-09-07T09:23:40.449Z,99.90
2022-09-07T09:29:47.931Z,99.90
2022-09-07T09:35:56.110Z,99.90
2022-09-07T09:42:03.253Z,97.60
2022-09-07T09:48:10.395Z,93.10
2022-09-07T09:54:17.827Z,90.20
2022-09-07T10:00:29.836Z,91.90
2022-09-07T10:06:36.971Z,95.50
2022-09-07T10:12:44.630Z,97.90
2022-09-07T10:18:51.594Z,99.90
2022-09-07T10:24:58.919Z,99.90
2022-09-07T10:31:06.109Z,99.90
2022-09-07T10:37:14.967Z,99.90
2022-09-07T10:43:22.354Z,99.90
2022-09-07T10:49:30.202Z,99.90
2022-09-07T10:55:37.163Z,99.90
2022-09-07T11:01:08.322Z,99.90
2022-09-07T11:06:06.820Z,99.90
2022-09-07T11:11:11.108Z,99.90
2022-09-07T11:16:09.022Z,99.90
2022-09-07T11:21:05.189Z,99.90
2022-09-07T11:26:19.317Z,99.90
2022-09-07T11:31:41.291Z,99.90
2022-09-07T11:36:39.289Z,99.90
2022-09-07T11:41:38.691Z,99.90
2022-09-07T11:46:45.850Z,99.90
2022-09-07T11:51:53.546Z,99.90
2022-09-07T11:56:54.891Z,99.90
2022-09-07T12:01:59.322Z,99.90
2022-09-07T12:07:20.292Z,99.90
2022-09-07T12:12:45.250Z,99.90
2022-09-07T12:17:43.506Z,99.90
2022-09-07T12:22:35.922Z,99.90
2022-09-07T12:27:30.898Z,99.90
2022-09-07T12:33:18.917Z,99.90
2022-09-07T12:38:14.089Z,99.90
2022-09-07T12:43:18.346Z,99.90
2022-09-07T12:48:16.806Z,99.90
2022-09-07T12:53:23.902Z,99.90
2022-09-07T12:58:16.116Z,99.90
2022-09-07T13:08:56.982Z,99.90
2022-09-07T13:14:04.567Z,99.90
2022-09-07T13:19:02.581Z,99.90
2022-09-07T13:30:27.183Z,99.90
2022-09-07T13:36:35.303Z,99.90
2022-09-07T13:42:41.917Z,99.90
2022-09-07T13:48:48.930Z,99.90
2022-09-07T13:54:00.261Z,99.90
2022-09-07T13:59:48.695Z,99.90
2022-09-07T14:05:55.553Z,99.90
2022-09-07T14:12:02.916Z,99.90
2022-09-07T14:18:12.027Z,99.90
2022-09-07T14:24:19.249Z,99.90
2022-09-07T14:30:26.251Z,99.90
2022-09-07T14:36:49.759Z,99.90
2022-09-07T14:42:56.527Z,99.90
2022-09-07T14:49:03.512Z,99.90
2022-09-07T14:55:10.941Z,99.90
2022-09-07T15:07:47.409Z,99.90
2022-09-07T15:13:55.173Z,99.90
2022-09-07T15:20:03.431Z,99.90
2022-09-07T15:27:02.097Z,99.90
2022-09-07T15:31:45.972Z,99.90
2022-09-07T15:36:52.495Z,99.90
2022-09-07T15:41:46.377Z,99.90
2022-09-07T15:46:39.245Z,99.90
2022-09-07T15:57:48.448Z,99.90
2022-09-07T16:02:00.141Z,99.90
2022-09-07T16:06:53.062Z,99.90
2022-09-07T16:11:45.417Z,99.90
2022-09-07T16:21:50.036Z,99.90
2022-09-07T16:26:42.403Z,99.90
2022-09-07T16:31:35.646Z,99.90
2022-09-07T16:36:28.084Z,99.90
2022-09-07T16:41:28.584Z,99.90
2022-09-07T16:46:26.254Z,99.90
2022-09-07T16:51:21.424Z,99.90
2022-09-07T16:56:17.225Z,99.90
2022-09-07T17:01:11.899Z,99.90
2022-09-07T17:06:06.201Z,99.90
2022-09-07T17:11:07.190Z,99.90
2022-09-07T17:16:11.422Z,99.90
2022-09-07T17:21:06.368Z,99.90
2022-09-07T17:26:13.835Z,99.90
2022-09-07T17:31:08.839Z,99.90
2022-09-07T17:36:03.524Z,99.90
2022-09-07T17:40:56.631Z,99.90
2022-09-07T17:45:49.022Z,99.90
2022-09-07T17:50:42.495Z,99.90
2022-09-07T17:55:36.030Z,99.90
2022-09-07T18:00:28.946Z,99.90
2022-09-07T18:05:21.773Z,99.90
2022-09-07T18:10:14.657Z,99.90
2022-09-07T18:15:07.410Z,99.90
2022-09-07T18:19:59.717Z,99.90
2022-09-07T18:24:52.361Z,99.90
2022-09-07T18:29:44.738Z,99.90
2022-09-07T18:34:44.000Z,99.90
2022-09-07T18:39:51.422Z,99.90
2022-09-07T18:50:02.607Z,99.90
2022-09-07T18:55:00.197Z,99.90
2022-09-07T19:00:04.930Z,99.90
2022-09-07T19:10:23.535Z,99.90
2022-09-07T19:15:25.035Z,99.90
2022-09-07T19:20:22.962Z,99.90
2022-09-07T19:25:26.917Z,99.90
2022-09-07T19:30:28.872Z,99.90
2022-09-07T19:35:28.333Z,99.90
2022-09-07T19:40:27.022Z,99.90
2022-09-07T19:45:29.225Z,99.90
2022-09-07T19:50:26.032Z,99.90
2022-09-07T19:55:26.416Z,99.90
2022-09-07T20:00:25.862Z,99.90
2022-09-07T20:05:23.028Z,99.90
2022-09-07T20:10:16.432Z,99.90
2022-09-07T20:15:19.332Z,99.90
2022-09-07T20:20:19.583Z,99.90
2022-09-07T20:25:29.601Z,99.90
2022-09-07T20:30:56.238Z,99.90
2022-09-07T20:36:18.538Z,99.90
2022-09-07T20:41:28.148Z,99.90
2022-09-07T20:46:31.147Z,99.90
2022-09-07T20:51:25.191Z,99.90
2022-09-07T20:56:32.768Z,99.90
2022-09-07T21:01:25.385Z,99.90
2022-09-07T21:06:19.213Z,99.90
2022-09-07T21:11:14.142Z,99.90
2022-09-07T21:16:16.456Z,99.90
2022-09-07T21:21:19.823Z,99.90
2022-09-07T21:26:13.027Z,99.90
2022-09-07T21:31:07.326Z,99.90
2022-09-07T21:36:09.705Z,99.90
2022-09-07T21:41:13.394Z,99.90
2022-09-07T21:47:01.597Z,99.90
2022-09-07T21:53:08.788Z,99.90
2022-09-07T21:59:16.155Z,99.90
2022-09-07T22:05:23.125Z,99.90
2022-09-07T22:11:30.390Z,99.90
2022-09-07T22:17:37.418Z,99.90
2022-09-07T22:23:44.729Z,99.90
2022-09-07T22:29:51.908Z,99.90
2022-09-07T22:35:59.072Z,99.90
2022-09-07T22:42:05.931Z,99.90
2022-09-07T22:48:13.129Z,99.90
2022-09-07T22:54:20.021Z,99.90
2022-09-07T23:00:27.312Z,99.90
2022-09-07T23:06:34.588Z,99.90
2022-09-07T23:12:41.843Z,99.90
2022-09-07T23:18:48.823Z,99.90
2022-09-07T23:24:56.624Z,99.90
2022-09-07T23:31:04.096Z,99.90
2022-09-07T23:37:11.300Z,99.90
2022-09-07T23:43:18.358Z,99.90
2022-09-07T23:48:29.501Z,99.90
2022-09-07T23:53:22.633Z,99.90
2022-09-07T23:58:15.054Z,99.90
